Time;durP1;ratioP1;P1;durP2;ratioP2;P2;SDS_P1;SDS_P2;PMS_P1;PMS_P2;Temp;Humidity;BMP_temperature;BMP_pressure;BME280_temperature;BME280_humidity;BME280_pressure;Samples;Min_cycle;Max_cycle;Signal;HPM_P1;HPM_P2
2023/12/07 00:00:00;;;;;;;32.28;17.70;;;4.30;99.90;;;;;;5026836;28;20033;-70
2023/12/07 00:02:25;;;;;;;33.45;17.98;;;4.30;99.90;;;;;;5023304;28;20072;-70
2023/12/07 00:04:51;;;;;;;29.38;17.05;;;4.30;99.90;;;;;;5025183;28;20028;-70
2023/12/07 00:07:16;;;;;;;32.13;18.35;;;4.30;99.90;;;;;;5024843;28;20033;-70
2023/12/07 00:09:42;;;;;;;32.75;17.58;;;4.30;99.90;;;;;;5026022;28;20499;-70
2023/12/07 00:12:08;;;;;;;33.28;18.42;;;4.20;99.90;;;;;;5024535;28;20807;-70
2023/12/07 00:14:33;;;;;;;27.25;16.27;;;4.20;99.90;;;;;;5024739;28;20041;-70
2023/12/07 00:17:01;;;;;;;30.73;17.35;;;4.20;99.90;;;;;;5024530;28;20033;-70
2023/12/07 00:19:29;;;;;;;30.00;16.38;;;4.30;99.90;;;;;;5025783;28;20455;-70
2023/12/07 00:21:57;;;;;;;31.15;17.42;;;4.30;99.90;;;;;;5007719;28;20028;-70
2023/12/07 00:24:25;;;;;;;;;;;4.30;99.90;;;;;;5025936;28;20052;-72
2023/12/07 00:26:53;;;;;;;29.50;16.95;;;4.30;99.90;;;;;;5024070;28;19917;-70
2023/12/07 00:29:18;;;;;;;;;;;4.30;99.90;;;;;;5031663;28;20114;-70
2023/12/07 00:31:46;;;;;;;27.05;16.13;;;4.30;99.90;;;;;;5026929;28;19999;-70
2023/12/07 00:34:12;;;;;;;31.75;16.75;;;4.40;99.90;;;;;;5026633;28;22504;-70
2023/12/07 00:36:40;;;;;;;29.45;15.50;;;4.30;99.90;;;;;;5024196;28;20123;-71
2023/12/07 00:39:08;;;;;;;29.27;16.73;;;4.40;99.90;;;;;;5028977;28;20033;-70
2023/12/07 00:41:36;;;;;;;30.20;17.05;;;4.30;99.90;;;;;;5025426;28;20025;-70
2023/12/07 00:44:02;;;;;;;;;;;4.30;99.90;;;;;;5025991;28;20483;-70
2023/12/07 00:46:27;;;;;;;32.63;16.77;;;4.50;99.90;;;;;;5026444;28;19926;-70
2023/12/07 00:48:53;;;;;;;28.38;16.13;;;4.40;99.90;;;;;;5029664;22;20151;-70
2023/12/07 00:51:19;;;;;;;31.75;16.27;;;4.40;99.90;;;;;;5022176;28;20029;-70
2023/12/07 00:53:44;;;;;;;31.13;16.45;;;4.40;99.90;;;;;;5018645;28;20567;-70
2023/12/07 00:56:10;;;;;;;33.63;18.50;;;4.40;99.90;;;;;;5023372;28;20087;-70
2023/12/07 00:58:38;;;;;;;30.23;16.88;;;4.40;99.90;;;;;;5020152;28;20032;-70
2023/12/07 01:01:04;;;;;;;26.13;16.17;;;4.50;99.90;;;;;;5022914;28;20728;-70
2023/12/07 01:03:29;;;;;;;33.60;18.38;;;4.50;99.90;;;;;;5020574;28;20110;-70
2023/12/07 01:05:55;;;;;;;32.78;18.15;;;4.50;99.90;;;;;;5020485;28;20025;-70
2023/12/07 01:08:21;;;;;;;27.95;17.25;;;4.40;99.90;;;;;;5022467;28;20033;-70
2023/12/07 01:10:46;;;;;;;31.15;17.80;;;4.50;99.90;;;;;;5022101;28;20090;-70
2023/12/07 01:13:12;;;;;;;33.10;18.13;;;4.50;99.90;;;;;;5025050;28;20033;-70
2023/12/07 01:15:40;;;;;;;29.60;17.35;;;4.50;99.90;;;;;;5020276;28;20156;-70
2023/12/07 01:18:08;;;;;;;;;;;4.50;99.90;;;;;;5027411;28;20040;-70
2023/12/07 01:20:33;;;;;;;;;;;4.50;99.90;;;;;;5025893;28;19920;-70
2023/12/07 01:22:59;;;;;;;27.00;15.82;;;4.50;99.90;;;;;;5024996;28;19920;-70
2023/12/07 01:25:25;;;;;;;34.70;16.98;;;4.50;99.90;;;;;;5020396;28;20282;-70
2023/12/07 01:27:50;;;;;;;31.52;17.15;;;4.50;99.90;;;;;;5022700;28;20028;-71
2023/12/07 01:30:16;;;;;;;30.30;17.35;;;4.50;99.90;;;;;;5018698;28;20422;-70
2023/12/07 01:32:42;;;;;;;30.13;17.58;;;4.50;99.90;;;;;;5020688;28;20033;-70
2023/12/07 01:35:10;;;;;;;29.33;17.45;;;4.60;99.90;;;;;;5020394;28;21612;-70
2023/12/07 01:37:36;;;;;;;31.45;16.80;;;4.60;99.90;;;;;;5022918;28;20033;-70
2023/12/07 01:40:09;;;;;;;30.40;16.38;;;4.50;99.90;;;;;;5021014;28;20036;-70
2023/12/07 01:42:35;;;;;;;34.15;17.52;;;4.60;99.90;;;;;;5021651;28;20068;-70
2023/12/07 01:45:02;;;;;;;32.63;17.15;;;4.60;99.90;;;;;;5020723;28;20029;-70
2023/12/07 01:47:28;;;;;;;31.90;17.90;;;4.60;99.90;;;;;;5023610;28;20045;-70
2023/12/07 01:49:54;;;;;;;31.00;16.95;;;4.50;99.90;;;;;;5022572;28;20064;-70
2023/12/07 01:52:26;;;;;;;33.38;17.58;;;4.50;99.90;;;;;;5022042;28;20037;-70
2023/12/07 01:54:52;;;;;;;32.55;19.02;;;4.50;99.90;;;;;;5020478;28;21319;-70
2023/12/07 01:57:19;;;;;;;32.88;17.60;;;4.60;99.90;;;;;;5019626;28;20881;-70
2023/12/07 01:59:45;;;;;;;37.90;18.60;;;4.50;99.90;;;;;;5021912;28;20044;-70
2023/12/07 02:02:10;;;;;;;28.70;17.10;;;4.60;99.90;;;;;;5019269;28;20029;-70
2023/12/07 02:04:38;;;;;;;33.22;18.67;;;4.50;99.90;;;;;;5019994;28;20216;-70
2023/12/07 02:07:04;;;;;;;34.80;17.90;;;4.50;99.90;;;;;;5019382;28;20035;-70
2023/12/07 02:09:31;;;;;;;31.20;16.73;;;4.60;99.90;;;;;;5015376;28;20068;-70
2023/12/07 02:12:00;;;;;;;30.67;17.55;;;4.60;99.90;;;;;;5015972;28;20033;-70
2023/12/07 02:14:25;;;;;;;30.45;17.58;;;4.60;99.90;;;;;;5017203;28;20025;-70
2023/12/07 02:17:11;;;;;;;32.13;17.98;;;4.50;99.90;;;;;;5016882;28;20044;-70
2023/12/07 02:19:52;;;;;;;33.00;18.35;;;4.50;99.90;;;;;;5017531;28;20474;-70
2023/12/07 02:22:31;;;;;;;37.63;18.23;;;4.60;99.90;;;;;;5021359;28;20032;-70
2023/12/07 02:25:09;;;;;;;37.97;17.92;;;4.60;99.90;;;;;;5020292;28;22407;-70
2023/12/07 02:27:38;;;;;;;35.67;18.48;;;4.50;99.90;;;;;;5020803;28;20183;-70
2023/12/07 02:30:05;;;;;;;32.60;18.27;;;4.60;99.90;;;;;;5018522;28;20438;-71
2023/12/07 02:32:30;;;;;;;35.70;18.77;;;4.50;99.90;;;;;;5020338;28;20523;-70
2023/12/07 02:34:56;;;;;;;31.60;18.35;;;4.60;99.90;;;;;;5019210;28;20040;-70
2023/12/07 02:37:24;;;;;;;32.95;18.05;;;4.60;99.90;;;;;;5019590;28;20031;-70
2023/12/07 02:39:51;;;;;;;29.88;17.70;;;4.70;99.90;;;;;;5020591;28;20390;-70
2023/12/07 02:42:17;;;;;;;28.80;15.87;;;4.80;99.90;;;;;;5019706;28;20041;-70
2023/12/07 02:44:43;;;;;;;29.20;16.05;;;4.60;99.90;;;;;;5018761;28;20391;-70
2023/12/07 02:47:09;;;;;;;31.85;16.33;;;4.70;99.90;;;;;;5019832;28;20032;-70
2023/12/07 02:49:34;;;;;;;34.08;17.83;;;4.60;99.90;;;;;;5020497;28;20021;-70
2023/12/07 02:52:00;;;;;;;29.98;16.83;;;4.70;99.90;;;;;;5020508;28;20111;-70
2023/12/07 02:54:26;;;;;;;33.00;17.25;;;4.60;99.90;;;;;;5019955;28;20037;-70
2023/12/07 02:56:54;;;;;;;33.92;16.40;;;4.60;99.90;;;;;;5019258;28;20033;-70
2023/12/07 02:59:19;;;;;;;28.00;16.88;;;4.60;99.90;;;;;;5000993;28;20037;-70
2023/12/07 03:01:45;;;;;;;26.95;15.85;;;4.70;99.90;;;;;;5022174;28;20595;-70
2023/12/07 03:04:11;;;;;;;35.88;17.95;;;4.70;99.90;;;;;;5020762;28;20036;-70
2023/12/07 03:06:36;;;;;;;31.55;17.58;;;4.70;99.90;;;;;;5020656;28;20027;-70
2023/12/07 03:09:03;;;;;;;31.75;16.52;;;4.70;99.90;;;;;;5017863;28;20056;-70
2023/12/07 03:11:28;;;;;;;32.30;17.02;;;4.70;99.90;;;;;;5017703;28;20880;-70
2023/12/07 03:13:54;;;;;;;30.15;17.52;;;4.80;99.90;;;;;;5018674;28;20048;-70
2023/12/07 03:16:22;;;;;;;30.67;17.23;;;4.80;99.90;;;;;;5020207;28;20111;-70
2023/12/07 03:18:47;;;;;;;;;;;4.90;99.90;;;;;;5018009;28;20033;-70
2023/12/07 03:21:15;;;;;;;26.17;15.55;;;4.80;99.90;;;;;;5019986;28;19935;-70
2023/12/07 03:23:40;;;;;;;29.97;16.60;;;4.90;99.90;;;;;;5020315;28;20044;-70
2023/12/07 03:26:06;;;;;;;28.13;15.57;;;4.90;99.90;;;;;;5019249;28;20029;-70
2023/12/07 03:28:32;;;;;;;30.27;16.83;;;5.00;99.90;;;;;;5018756;28;20086;-70
2023/12/07 03:30:57;;;;;;;27.20;16.20;;;5.00;99.90;;;;;;5018883;28;20700;-70
2023/12/07 03:33:23;;;;;;;26.95;16.00;;;4.90;99.90;;;;;;5018507;28;20036;-70
2023/12/07 03:35:51;;;;;;;27.85;16.38;;;4.90;99.90;;;;;;5017643;28;21277;-70
2023/12/07 03:38:16;;;;;;;28.13;15.20;;;5.00;99.90;;;;;;5020373;28;20040;-70
2023/12/07 03:40:42;;;;;;;24.90;14.70;;;4.90;99.90;;;;;;5017819;28;20481;-70
2023/12/07 03:43:07;;;;;;;27.48;15.57;;;4.80;99.90;;;;;;5019607;28;20040;-70
2023/12/07 03:45:33;;;;;;;30.33;16.35;;;4.80;99.90;;;;;;5019627;28;20224;-70
2023/12/07 03:47:58;;;;;;;28.08;15.85;;;4.80;99.90;;;;;;5021586;28;20239;-70
2023/12/07 03:50:24;;;;;;;29.40;15.00;;;4.70;99.90;;;;;;5018404;28;20051;-69
2023/12/07 03:52:52;;;;;;;29.08;15.68;;;4.70;99.90;;;;;;5016645;28;20419;-70
2023/12/07 03:55:17;;;;;;;;;;;4.70;99.90;;;;;;5016689;28;20452;-70
2023/12/07 03:57:45;;;;;;;27.23;15.63;;;4.70;99.90;;;;;;5019425;28;19913;-70
2023/12/07 04:00:12;;;;;;;27.23;15.55;;;4.80;99.90;;;;;;5017326;28;20431;-70
2023/12/07 04:02:38;;;;;;;27.00;14.98;;;4.70;99.90;;;;;;5018720;28;20253;-70
2023/12/07 04:05:04;;;;;;;30.55;15.13;;;4.70;99.90;;;;;;5017624;28;20033;-70
2023/12/07 04:07:30;;;;;;;25.33;15.05;;;4.70;99.90;;;;;;5017511;28;20029;-70
2023/12/07 04:09:57;;;;;;;27.75;16.13;;;4.70;99.90;;;;;;5018645;28;20818;-70
2023/12/07 04:12:23;;;;;;;25.95;15.30;;;4.80;99.90;;;;;;5017454;28;20033;-70
2023/12/07 04:14:49;;;;;;;27.35;15.43;;;4.80;99.90;;;;;;5016574;28;20648;-70
2023/12/07 04:17:15;;;;;;;28.75;15.32;;;4.80;99.90;;;;;;5002403;28;20083;-71
2023/12/07 04:19:41;;;;;;;29.45;15.18;;;4.90;99.90;;;;;;5017730;28;20090;-70
2023/12/07 04:22:06;;;;;;;27.98;14.50;;;4.90;99.90;;;;;;5024903;28;20033;-70
2023/12/07 04:24:32;;;;;;;23.60;14.13;;;4.90;99.90;;;;;;5023717;28;20144;-70
2023/12/07 04:27:00;;;;;;;23.52;14.07;;;4.80;99.90;;;;;;5025333;28;20518;-70
2023/12/07 04:29:26;;;;;;;;;;;4.90;99.90;;;;;;5020899;28;20029;-70
2023/12/07 04:31:51;;;;;;;27.10;14.60;;;4.80;99.90;;;;;;5023161;28;20657;-70
2023/12/07 04:34:17;;;;;;;26.45;15.07;;;4.90;99.90;;;;;;5020321;28;20044;-70
2023/12/07 04:36:42;;;;;;;29.48;15.48;;;4.90;99.90;;;;;;5022896;28;20036;-70
2023/12/07 04:39:08;;;;;;;26.50;14.57;;;4.90;99.90;;;;;;5023026;28;20544;-70
2023/12/07 04:41:33;;;;;;;26.80;15.13;;;4.80;99.90;;;;;;5021571;28;20043;-70
2023/12/07 04:43:59;;;;;;;24.67;13.98;;;4.70;99.90;;;;;;5021844;28;20033;-70
2023/12/07 04:46:25;;;;;;;29.10;15.25;;;4.80;99.90;;;;;;5022078;28;20041;-70
2023/12/07 04:48:55;;;;;;;24.35;13.48;;;4.70;99.90;;;;;;5022422;28;20246;-70
2023/12/07 04:51:21;;;;;;;26.67;15.57;;;4.80;99.90;;;;;;5023353;28;20371;-70
2023/12/07 04:53:47;;;;;;;30.42;14.95;;;4.70;99.90;;;;;;5020837;28;20032;-70
2023/12/07 04:56:13;;;;;;;27.20;14.35;;;4.70;99.90;;;;;;5023200;28;20032;-70
2023/12/07 04:58:39;;;;;;;30.48;14.60;;;4.80;99.90;;;;;;5019868;28;20079;-70
2023/12/07 05:01:04;;;;;;;24.98;14.07;;;4.80;99.90;;;;;;5022596;28;20037;-70
2023/12/07 05:03:30;;;;;;;24.75;14.15;;;4.80;99.90;;;;;;5021097;28;20313;-70
2023/12/07 05:05:55;;;;;;;25.80;14.32;;;4.80;99.90;;;;;;5022764;28;20411;-70
2023/12/07 05:08:23;;;;;;;27.83;14.60;;;4.90;99.90;;;;;;5021999;28;20817;-70
2023/12/07 05:10:49;;;;;;;;;;;4.90;99.90;;;;;;5022086;28;20033;-70
2023/12/07 05:13:14;;;;;;;26.52;15.18;;;5.00;99.90;;;;;;5022799;28;20432;-70
2023/12/07 05:15:41;;;;;;;28.92;15.80;;;5.00;99.90;;;;;;5019624;28;20033;-70
2023/12/07 05:18:06;;;;;;;26.42;15.65;;;5.00;99.90;;;;;;5022182;28;20386;-70
2023/12/07 05:20:32;;;;;;;26.90;13.95;;;4.90;99.90;;;;;;5019656;28;20036;-70
2023/12/07 05:22:57;;;;;;;27.48;16.08;;;4.90;99.90;;;;;;5023553;28;20044;-70
2023/12/07 05:25:23;;;;;;;25.60;14.18;;;5.00;99.90;;;;;;5020274;28;20611;-70
2023/12/07 05:27:48;;;;;;;27.80;15.45;;;5.00;99.90;;;;;;5025954;28;20033;-70
2023/12/07 05:30:17;;;;;;;25.20;14.57;;;4.90;99.90;;;;;;5022468;28;20029;-70
2023/12/07 05:32:42;;;;;;;25.20;15.20;;;5.00;99.90;;;;;;5026027;28;20051;-70
2023/12/07 05:35:08;;;;;;;28.15;14.70;;;4.90;99.90;;;;;;5023089;28;20033;-70
2023/12/07 05:37:34;;;;;;;24.08;14.32;;;5.00;99.90;;;;;;5023314;28;20036;-70
2023/12/07 05:39:59;;;;;;;24.38;13.65;;;4.90;99.90;;;;;;5015581;28;20041;-70
2023/12/07 05:42:25;;;;;;;27.33;14.35;;;5.00;99.90;;;;;;5021503;28;22173;-70
2023/12/07 05:44:50;;;;;;;25.65;14.23;;;5.00;99.90;;;;;;5019260;28;20048;-70
2023/12/07 05:47:16;;;;;;;26.75;14.27;;;5.00;99.90;;;;;;5021282;28;20979;-70
2023/12/07 05:49:41;;;;;;;25.58;14.18;;;4.90;99.90;;;;;;5023753;28;20102;-70
2023/12/07 05:52:07;;;;;;;27.80;15.63;;;4.90;99.90;;;;;;5017748;28;20108;-70
2023/12/07 05:54:33;;;;;;;25.15;14.50;;;5.00;99.90;;;;;;5019276;28;20487;-70
2023/12/07 05:56:59;;;;;;;26.67;15.20;;;5.00;99.90;;;;;;5019883;28;20613;-70
2023/12/07 05:59:25;;;;;;;24.83;13.70;;;4.90;99.90;;;;;;5018624;28;20060;-70
2023/12/07 06:01:56;;;;;;;26.88;14.77;;;5.00;99.90;;;;;;5023638;28;20041;-70
2023/12/07 06:04:24;;;;;;;24.40;13.38;;;5.00;99.90;;;;;;5023900;28;20119;-70
2023/12/07 06:06:50;;;;;;;27.38;14.65;;;5.00;99.90;;;;;;5021391;28;20052;-70
2023/12/07 06:09:15;;;;;;;22.98;13.32;;;5.00;99.90;;;;;;5019003;28;20111;-70
2023/12/07 06:11:41;;;;;;;30.88;15.13;;;4.90;99.90;;;;;;5019766;28;20122;-70
2023/12/07 06:14:07;;;;;;;27.73;16.13;;;4.90;99.90;;;;;;5018927;28;20040;-70
2023/12/07 06:16:33;;;;;;;26.70;14.07;;;4.80;99.90;;;;;;5020898;28;20082;-70
2023/12/07 06:18:58;;;;;;;23.85;12.52;;;4.90;99.90;;;;;;5020757;28;20041;-70
2023/12/07 06:21:25;;;;;;;23.55;13.82;;;5.00;99.90;;;;;;5021839;28;20143;-70
2023/12/07 06:23:50;;;;;;;22.45;13.18;;;4.90;99.90;;;;;;5019184;28;20333;-71
2023/12/07 06:26:19;;;;;;;25.17;13.90;;;4.90;99.90;;;;;;5022132;28;20467;-70
2023/12/07 06:28:44;;;;;;;30.67;15.05;;;5.00;99.90;;;;;;5018721;28;20033;-70
2023/12/07 06:31:12;;;;;;;22.88;13.80;;;5.10;99.90;;;;;;5020176;28;20016;-70
2023/12/07 06:33:37;;;;;;;27.98;14.57;;;5.10;99.90;;;;;;5019044;28;20033;-70
2023/12/07 06:36:04;;;;;;;23.98;13.80;;;5.00;99.90;;;;;;5019507;28;20386;-70
2023/12/07 06:38:30;;;;;;;29.33;14.30;;;5.10;99.90;;;;;;5020757;28;20029;-70
2023/12/07 06:40:56;;;;;;;25.77;13.52;;;5.00;99.90;;;;;;5017276;28;20061;-70
2023/12/07 06:43:25;;;;;;;26.05;13.60;;;5.10;99.90;;;;;;5020552;28;20036;-70
2023/12/07 06:45:52;;;;;;;27.17;13.38;;;5.00;99.90;;;;;;5016112;28;20032;-70
2023/12/07 06:48:18;;;;;;;29.17;14.02;;;5.00;99.90;;;;;;5066389;22;20052;-70
2023/12/07 06:50:43;;;;;;;23.25;13.35;;;5.00;99.90;;;;;;5085027;28;20115;-70
2023/12/07 06:53:09;;;;;;;32.63;14.23;;;4.90;99.90;;;;;;5077583;28;21213;-70
2023/12/07 06:55:35;;;;;;;26.27;13.35;;;4.90;99.90;;;;;;5058616;28;20162;-70
2023/12/07 06:58:00;;;;;;;23.00;12.35;;;4.90;99.90;;;;;;5058306;28;20089;-63
2023/12/07 07:00:26;;;;;;;29.80;13.23;;;4.90;99.90;;;;;;5059521;28;20036;-70
2023/12/07 07:02:51;;;;;;;23.98;13.88;;;5.00;99.90;;;;;;5058334;28;20092;-71
2023/12/07 07:05:17;;;;;;;23.60;13.40;;;4.90;99.90;;;;;;5059827;28;20295;-70
2023/12/07 07:07:42;;;;;;;27.20;13.25;;;5.00;99.90;;;;;;5060318;28;20192;-70
2023/12/07 07:10:12;;;;;;;24.15;12.63;;;5.10;99.90;;;;;;5060524;28;20032;-70
2023/12/07 07:12:40;;;;;;;23.10;12.75;;;5.00;99.90;;;;;;5062178;28;20348;-70
2023/12/07 07:15:08;;;;;;;25.00;12.43;;;5.00;99.90;;;;;;5059236;28;20035;-70
2023/12/07 07:17:33;;;;;;;23.85;13.18;;;5.10;99.90;;;;;;5065268;28;20055;-70
2023/12/07 07:19:59;;;;;;;25.25;13.25;;;5.10;99.90;;;;;;5047081;28;20138;-70
2023/12/07 07:22:24;;;;;;;23.92;12.60;;;5.10;99.90;;;;;;5063590;28;20031;-70
2023/12/07 07:24:50;;;;;;;22.60;12.85;;;5.20;99.90;;;;;;5060209;28;20122;-70
2023/12/07 07:27:15;;;;;;;25.48;12.23;;;5.20;99.90;;;;;;5060992;28;20109;-70
2023/12/07 07:29:41;;;;;;;24.63;12.23;;;5.20;99.90;;;;;;5058284;28;20039;-70
2023/12/07 07:32:07;;;;;;;22.25;12.15;;;5.20;99.90;;;;;;5059352;28;20133;-70
2023/12/07 07:34:33;;;;;;;45.42;12.68;;;5.20;99.90;;;;;;5058792;28;20131;-70
2023/12/07 07:36:58;;;;;;;25.98;11.73;;;5.10;99.90;;;;;;5060185;28;20106;-70
2023/12/07 07:39:28;;;;;;;24.02;12.68;;;5.10;99.90;;;;;;5057913;28;20405;-70
2023/12/07 07:41:54;;;;;;;25.10;12.65;;;5.10;99.90;;;;;;5060472;28;20165;-70
2023/12/07 07:44:22;;;;;;;27.23;12.73;;;5.20;99.90;;;;;;5058968;28;20382;-69
2023/12/07 07:46:47;;;;;;;;;;;5.20;99.90;;;;;;5061281;28;20063;-69
2023/12/07 07:49:13;;;;;;;24.63;13.07;;;5.30;99.90;;;;;;5060323;28;19926;-68
2023/12/07 07:51:38;;;;;;;26.73;13.27;;;5.30;99.90;;;;;;5062028;28;20523;-69
2023/12/07 07:54:04;;;;;;;25.02;13.38;;;5.30;99.90;;;;;;5058408;28;20632;-69
2023/12/07 07:56:30;;;;;;;32.30;13.77;;;5.40;99.90;;;;;;5062494;28;20235;-68
2023/12/07 07:58:55;;;;;;;23.95;11.60;;;5.40;99.90;;;;;;5057949;28;20039;-69
2023/12/07 08:01:21;;;;;;;22.20;12.85;;;5.40;99.90;;;;;;5061267;28;20574;-69
2023/12/07 08:03:47;;;;;;;24.52;12.35;;;5.40;99.90;;;;;;5061397;28;20444;-69
2023/12/07 08:06:12;;;;;;;25.10;12.55;;;5.30;99.90;;;;;;5062457;28;20586;-69
2023/12/07 08:08:40;;;;;;;19.60;12.20;;;5.40;99.90;;;;;;5058924;28;20046;-69
2023/12/07 08:11:06;;;;;;;22.75;11.43;;;5.40;99.90;;;;;;5064007;28;20063;-69
2023/12/07 08:13:31;;;;;;;19.10;11.40;;;5.40;99.90;;;;;;5059922;28;20028;-69
2023/12/07 08:16:00;;;;;;;24.02;11.63;;;5.40;99.90;;;;;;5060740;28;20028;-69
2023/12/07 08:18:28;;;;;;;21.00;10.88;;;5.50;99.90;;;;;;5060817;28;20054;-69
2023/12/07 08:20:56;;;;;;;22.77;11.63;;;5.50;99.90;;;;;;5061463;28;20070;-69
2023/12/07 08:23:22;;;;;;;25.73;12.45;;;5.50;99.90;;;;;;5060927;28;20043;-69
2023/12/07 08:25:48;;;;;;;23.90;12.35;;;5.50;99.90;;;;;;5063271;28;20032;-69
2023/12/07 08:28:13;;;;;;;24.95;11.85;;;5.50;99.90;;;;;;5057101;28;20024;-69
2023/12/07 08:30:41;;;;;;;21.20;12.48;;;5.50;99.90;;;;;;5060604;28;20043;-69
2023/12/07 08:33:07;;;;;;;25.75;13.02;;;5.50;99.90;;;;;;5061697;28;20032;-69
2023/12/07 08:35:32;;;;;;;24.63;12.73;;;5.50;99.90;;;;;;5061888;28;20043;-69
2023/12/07 08:38:00;;;;;;;22.23;11.75;;;5.60;99.90;;;;;;5059422;28;20168;-69
2023/12/07 08:40:26;;;;;;;;;;;5.60;99.90;;;;;;5060566;28;20036;-69
2023/12/07 08:42:51;;;;;;;27.33;12.68;;;5.60;99.90;;;;;;5057156;28;19957;-69
2023/12/07 08:45:17;;;;;;;25.13;12.82;;;5.60;99.90;;;;;;5060981;28;20430;-69
2023/12/07 08:47:43;;;;;;;25.92;13.02;;;5.50;99.90;;;;;;5058702;28;20039;-69
2023/12/07 08:50:09;;;;;;;25.27;12.73;;;5.50;99.90;;;;;;5064238;28;20043;-69
2023/12/07 08:52:35;;;;;;;24.17;12.20;;;5.50;99.90;;;;;;5063757;28;20059;-71
2023/12/07 08:55:01;;;;;;;28.15;12.75;;;5.60;99.90;;;;;;5062010;28;20654;-69
2023/12/07 08:57:26;;;;;;;25.40;12.57;;;5.60;99.90;;;;;;5058024;28;20044;-69
2023/12/07 08:59:52;;;;;;;23.95;12.80;;;5.70;99.90;;;;;;5057843;28;20665;-69
2023/12/07 09:02:17;;;;;;;24.20;12.52;;;5.60;99.90;;;;;;5058059;28;20036;-69
2023/12/07 09:04:43;;;;;;;25.00;13.90;;;5.60;99.90;;;;;;5056732;28;20074;-69
2023/12/07 09:07:09;;;;;;;23.77;12.27;;;5.60;99.90;;;;;;5060178;28;20769;-69
2023/12/07 09:09:37;;;;;;;23.98;11.52;;;5.70;99.90;;;;;;5061835;28;20031;-69
2023/12/07 09:12:02;;;;;;;;;;;5.60;99.90;;;;;;5065247;28;20518;-69
2023/12/07 09:14:30;;;;;;;23.50;12.52;;;5.60;99.90;;;;;;5060428;28;19923;-69
2023/12/07 09:16:56;;;;;;;21.58;11.40;;;5.60;99.90;;;;;;5063576;28;20023;-69
2023/12/07 09:19:26;;;;;;;25.98;12.20;;;5.50;99.90;;;;;;5062877;28;21580;-69
2023/12/07 09:21:54;;;;;;;23.00;13.13;;;5.50;99.90;;;;;;5063748;28;20079;-69
2023/12/07 09:24:20;;;;;;;;;;;5.50;99.90;;;;;;5059938;28;20025;-69
2023/12/07 09:26:45;;;;;;;23.63;12.57;;;5.50;99.90;;;;;;5060255;28;19922;-69
2023/12/07 09:29:11;;;;;;;26.60;12.90;;;5.60;99.90;;;;;;5060363;28;20032;-69
2023/12/07 09:31:36;;;;;;;23.60;13.05;;;5.60;99.90;;;;;;5062136;28;20239;-63
2023/12/07 09:34:02;;;;;;;26.25;13.23;;;5.70;99.90;;;;;;5062405;28;20035;-62
2023/12/07 09:36:28;;;;;;;23.17;13.13;;;5.60;99.90;;;;;;5067822;28;20695;-62
2023/12/07 09:38:53;;;;;;;22.90;12.43;;;5.70;99.90;;;;;;5061457;28;20232;-62
2023/12/07 09:41:20;;;;;;;28.08;13.65;;;5.70;99.90;;;;;;5059279;28;20123;-62
2023/12/07 09:43:46;;;;;;;22.42;12.93;;;5.70;99.90;;;;;;5058074;28;20030;-62
2023/12/07 09:46:13;;;;;;;26.45;12.80;;;5.70;99.90;;;;;;5060048;28;20023;-62
2023/12/07 09:48:43;;;;;;;25.83;13.57;;;5.60;99.90;;;;;;5058303;28;20050;-62
2023/12/07 09:51:10;;;;;;;25.30;14.63;;;5.60;99.90;;;;;;5061212;28;20505;-61
2023/12/07 09:53:36;;;;;;;32.40;13.70;;;5.60;99.90;;;;;;5058756;28;20028;-61
2023/12/07 09:56:04;;;;;;;23.90;14.25;;;5.60;99.90;;;;;;5061722;28;20032;-62
2023/12/07 09:58:30;;;;;;;;;;;5.60;99.90;;;;;;5059849;28;20257;-62
2023/12/07 10:00:58;;;;;;;26.45;14.20;;;5.60;99.90;;;;;;5041575;28;19917;-61
2023/12/07 10:03:24;;;;;;;;;;;5.70;99.90;;;;;;5058415;28;20039;-62
2023/12/07 10:05:58;;;;;;;27.15;15.23;;;5.70;99.90;;;;;;5059468;28;19916;-61
2023/12/07 10:08:32;;;;;;;24.00;13.82;;;5.80;99.90;;;;;;5059583;28;20032;-62
2023/12/07 10:11:08;;;;;;;24.55;14.65;;;5.60;99.90;;;;;;5061193;28;20071;-63
2023/12/07 10:13:35;;;;;;;25.73;14.70;;;5.60;99.90;;;;;;5058833;28;20348;-63
2023/12/07 10:16:07;;;;;;;28.48;14.63;;;5.70;99.90;;;;;;5060675;28;20032;-63
2023/12/07 10:18:33;;;;;;;28.85;14.45;;;5.80;99.90;;;;;;5056828;28;20036;-63
2023/12/07 10:20:58;;;;;;;26.65;14.57;;;5.90;99.90;;;;;;5061403;28;20441;-63
2023/12/07 10:23:26;;;;;;;26.27;15.23;;;5.80;99.90;;;;;;5059076;28;20165;-63
2023/12/07 10:25:51;;;;;;;26.73;14.25;;;5.80;99.90;;;;;;5062364;28;21321;-63
2023/12/07 10:28:19;;;;;;;25.75;14.68;;;5.70;99.90;;;;;;5059508;28;20394;-63
2023/12/07 10:30:45;;;;;;;28.20;14.18;;;5.80;99.90;;;;;;5059148;28;20477;-62
2023/12/07 10:33:12;;;;;;;27.17;14.98;;;5.80;99.90;;;;;;5054901;28;20036;-62
2023/12/07 10:35:40;;;;;;;21.70;13.48;;;5.70;99.90;;;;;;5058765;28;20516;-63
2023/12/07 10:38:09;;;;;;;27.93;14.33;;;5.70;99.90;;;;;;5060458;28;20036;-62
2023/12/07 10:40:34;;;;;;;27.13;14.60;;;5.70;99.90;;;;;;5058707;28;22906;-62
2023/12/07 10:43:04;;;;;;;28.23;14.20;;;5.80;99.90;;;;;;5057017;28;20119;-63
2023/12/07 10:45:30;;;;;;;30.88;15.75;;;5.70;99.90;;;;;;5060338;28;20167;-63
2023/12/07 10:48:06;;;;;;;24.33;13.88;;;5.80;99.90;;;;;;5057866;28;20584;-62
2023/12/07 10:50:41;;;;;;;30.58;15.43;;;5.80;99.90;;;;;;5058890;28;20132;-63
2023/12/07 10:53:40;;;;;;;24.58;14.10;;;5.90;99.90;;;;;;5059423;28;20032;-63
2023/12/07 10:56:10;;;;;;;27.92;15.18;;;5.90;99.90;;;;;;5054704;28;20469;-65
2023/12/07 10:58:36;;;;;;;27.92;14.35;;;5.80;99.90;;;;;;5058350;28;20040;-65
2023/12/07 11:01:05;;;;;;;31.45;15.93;;;5.80;99.90;;;;;;5059391;28;20038;-65
2023/12/07 11:03:33;;;;;;;24.70;14.15;;;5.90;99.90;;;;;;5057249;28;20668;-65
2023/12/07 11:06:04;;;;;;;34.03;15.25;;;5.90;99.90;;;;;;5059543;28;20032;-65
2023/12/07 11:08:31;;;;;;;26.60;14.73;;;5.90;99.90;;;;;;5057804;28;20036;-65
2023/12/07 11:11:21;;;;;;;28.90;16.15;;;5.80;99.90;;;;;;5055971;28;20580;-65
2023/12/07 11:13:56;;;;;;;28.25;14.20;;;5.80;99.90;;;;;;5056673;28;20085;-65
2023/12/07 11:16:37;;;;;;;30.98;13.68;;;5.90;99.90;;;;;;5058429;28;20093;-65
2023/12/07 11:19:07;;;;;;;27.33;14.73;;;6.00;99.90;;;;;;5056043;28;20076;-64
2023/12/07 11:21:32;;;;;;;25.73;13.95;;;6.00;99.90;;;;;;5058296;28;20386;-65
2023/12/07 11:24:04;;;;;;;25.70;14.23;;;6.10;99.90;;;;;;5057663;28;20513;-65
2023/12/07 11:26:32;;;;;;;27.50;14.60;;;6.00;99.90;;;;;;5058893;28;20443;-65
2023/12/07 11:28:59;;;;;;;25.60;13.98;;;6.00;99.90;;;;;;5060920;28;20148;-65
2023/12/07 11:31:25;;;;;;;24.83;13.93;;;6.00;99.90;;;;;;5059577;28;20758;-65
2023/12/07 11:33:53;;;;;;;26.75;14.88;;;6.00;99.90;;;;;;5055731;28;20035;-65
2023/12/07 11:36:19;;;;;;;;;;;6.00;99.90;;;;;;5058915;28;20036;-65
2023/12/07 11:39:08;;;;;;;28.85;14.45;;;6.10;99.90;;;;;;5056403;28;20550;-65
2023/12/07 11:41:40;;;;;;;26.08;13.60;;;6.10;99.90;;;;;;5049826;28;20044;-65
2023/12/07 11:44:08;;;;;;;26.10;13.65;;;6.00;99.90;;;;;;5056781;28;20020;-65
2023/12/07 11:46:34;;;;;;;;;;;6.10;99.90;;;;;;5058297;28;20194;-65
2023/12/07 11:49:01;;;;;;;29.73;13.25;;;5.90;99.90;;;;;;5053308;28;21108;-65
2023/12/07 11:51:29;;;;;;;30.20;15.13;;;6.00;99.90;;;;;;5058621;28;20052;-65
2023/12/07 11:53:57;;;;;;;21.17;12.95;;;6.00;99.90;;;;;;5039153;28;20166;-65
2023/12/07 11:56:25;;;;;;;;;;;6.10;99.90;;;;;;5057452;28;20040;-65
2023/12/07 11:58:55;;;;;;;;;;;6.10;99.90;;;;;;5056386;28;19916;-65
2023/12/07 12:01:21;;;;;;;24.30;13.05;;;6.20;99.90;;;;;;5058930;28;19916;-65
2023/12/07 12:03:49;;;;;;;26.60;13.90;;;6.20;99.90;;;;;;5057671;28;20425;-65
2023/12/07 12:06:15;;;;;;;30.38;14.07;;;6.10;99.90;;;;;;5059056;28;20032;-65
2023/12/07 12:08:42;;;;;;;25.50;13.90;;;6.10;99.90;;;;;;5058788;28;20028;-65
2023/12/07 12:11:08;;;;;;;26.77;13.65;;;6.20;99.90;;;;;;5061272;28;20671;-65
2023/12/07 12:13:37;;;;;;;23.70;13.15;;;6.10;99.90;;;;;;5054191;28;20047;-65
2023/12/07 12:16:04;;;;;;;28.33;14.23;;;6.20;99.90;;;;;;5057203;28;20056;-65
2023/12/07 12:18:32;;;;;;;27.92;14.65;;;6.10;99.90;;;;;;5056805;28;20117;-65
2023/12/07 12:20:59;;;;;;;35.03;15.23;;;6.00;99.90;;;;;;5057865;28;20046;-64
2023/12/07 12:23:24;;;;;;;29.70;13.63;;;6.10;99.90;;;;;;5056126;28;20510;-65
2023/12/07 12:25:50;;;;;;;30.80;14.60;;;6.10;99.90;;;;;;5058975;28;20075;-65
2023/12/07 12:28:19;;;;;;;34.60;15.45;;;6.10;99.90;;;;;;5039018;28;20019;-65
2023/12/07 12:30:44;;;;;;;;;;;6.20;99.90;;;;;;5058882;28;20085;-65
2023/12/07 12:33:15;;;;;;;32.35;14.75;;;6.20;99.90;;;;;;5055755;28;19916;-65
2023/12/07 12:35:41;;;;;;;30.50;16.10;;;6.20;99.90;;;;;;5058361;28;20036;-65
2023/12/07 12:38:11;;;;;;;28.80;14.93;;;6.20;99.90;;;;;;5056855;28;20028;-65
2023/12/07 12:40:37;;;;;;;32.72;14.77;;;6.10;99.90;;;;;;5057842;28;20051;-65